• Join FlightAware (Why Join?)
  • Login
  • US Flag 
10:41PM EDT


 

Airport Tracker/Info


-or-


 

Live Flight TrackerFlight Track Log ✈ JBU917 ✈ 11-Apr-2013 ✈ KJFK - KORD

Flight Track Log - Related Links

Times and Time Zones

All times are in EDT time to prevent confusion due to time zone crossing. See the JBU917 flight status page for this flight to view local times or setup timezone preferences in your user account.

Time Position Orientation Groundspeed Altitude Reporting Facility
EDT Latitude Longitude Course Direction KTS MPH feet Rate Location/Type
04:33PM 40.6667 -73.7333 306° West 159 183 1,500  Level New York TRACON
04:34PM 40.6833 -73.6667 72° East 212 244 3,400 1,860 Climbing New York TRACON
04:35PM 40.7167 -73.5833 62° Northeast 288 331 5,300 2,280 Climbing New York TRACON
04:36PM 40.8360 -74.1551 304° West  Level FlightAware Approximate
04:36PM 40.7667 -73.4833 57° Northeast 317 365 8,000  Level New York TRACON
04:37PM 40.8880 -74.2556 306° West  Level FlightAware Approximate
04:37PM 40.8333 -73.5000 349° North 302 348 10,700  Level New York TRACON
04:38PM 40.9418 -74.3544 306° West  Level FlightAware Approximate
04:38PM 40.9167 -73.5500 336° Northwest 318 366 12,300  Level New York TRACON
04:39PM 40.9667 -73.6333 308° West 326 375 14,700 2,280 Climbing New York TRACON
04:40PM 41.0333 -73.7333 311° West 337 388 16,900 840 Climbing New York TRACON
04:42PM 41.0736 -73.9281 285° West 338 389 17,100 60 Climbing New York Center
04:43PM 41.0831 -74.0358 277° West 315 362 17,100  Level New York Center
04:44PM 41.0925 -74.1436 277° West 305 351 17,100 660 Level New York Center
04:45PM 41.0997 -74.2569 275° West 300 345 18,500 1,440 Climbing New York Center
04:46PM 41.1089 -74.3647 276° West 300 345 20,000 720 Climbing New York Center
04:47PM 41.1197 -74.4864 277° West 318 366 20,000  Level New York Center
04:48PM 41.1303 -74.6139 276° West 335 386 20,000 660 Level New York Center
04:49PM 41.1553 -74.7392 285° West 345 397 21,400 1,440 Climbing New York Center
04:50PM 41.2078 -74.8525 302° West 351 404 23,000 1,320 Climbing New York Center
04:51PM 41.2558 -74.9686 299° West 378 435 24,100 1,140 Climbing New York Center
04:52PM 41.3094 -75.0936 300° West 390 449 25,300 1,200 Climbing New York Center
04:53PM 41.3728 -75.2414 300° West 407 468 26,600 1,140 Climbing New York Center
04:54PM 41.4300 -75.3753 300° West 419 482 27,700 1,020 Climbing New York Center
04:55PM 41.4831 -75.5117 297° West 419 482 28,700 900 Climbing New York Center
04:56PM 41.5178 -75.6278 292° West 419 482 29,500 1,260 Climbing New York Center
04:57PM 41.5669 -75.8006 291° West 414 476 31,200 1,560 Climbing New York Center
04:58PM 41.6067 -75.9394 291° West 414 476 32,700 1,200 Climbing New York Center
04:59PM 41.6442 -76.0811 290° West 409 471 33,700 1,200 Climbing New York Center
05:00PM 41.6842 -76.2119 292° West 402 463 35,200 1,080 Climbing New York Center
05:01PM 41.7197 -76.3428 290° West 390 449 35,900 360 Climbing New York Center
05:02PM 41.7572 -76.4739 291° West 385 443 36,000  Climbing New York Center
05:03PM 41.7892 -76.5906 290° West 375 432 36,000  Level New York Center
05:04PM 41.8242 -76.7217 290° West 375 432 36,000  Level New York Center
05:05PM 41.8594 -76.8503 290° West 375 432 36,000  Level New York Center
05:06PM 41.8942 -76.9817 290° West 375 432 36,000  Level New York Center
05:06PM 41.9164 -77.0586 291° West 377 434 36,000  Level Cleveland Center
05:07PM 41.9517 -77.1878 290° West 377 434 36,000  Level Cleveland Center
05:08PM 41.9886 -77.3200 291° West 377 434 36,000  Level Cleveland Center
05:09PM 42.0217 -77.4497 289° West 377 434 36,000  Level Cleveland Center
05:10PM 42.0564 -77.5794 290° West 377 434 36,000  Level Cleveland Center
05:11PM 42.0908 -77.7094 290° West 377 434 36,000  Level Cleveland Center
05:12PM 42.1275 -77.8394 291° West 377 434 36,000  Level Cleveland Center
05:13PM 42.1617 -77.9725 289° West 377 434 36,000  Level Cleveland Center
05:14PM 42.1961 -78.1083 289° West 377 434 36,000  Level Cleveland Center
05:15PM 42.2300 -78.2361 290° West 377 434 36,000  Level Cleveland Center
05:16PM 42.2639 -78.3694 289° West 377 434 36,000  Level Cleveland Center
05:17PM 42.2978 -78.5031 289° West 377 434 36,000  Level Cleveland Center
05:18PM 42.3311 -78.6339 289° West 377 434 36,000  Level Cleveland Center
05:19PM 42.3603 -78.7511 289° West 377 434 36,000  Level Cleveland Center
05:20PM 42.3956 -78.8878 289° West 372 428 36,000  Level Cleveland Center
05:21PM 42.4267 -79.0219 287° West 377 434 36,000  Level Cleveland Center
05:22PM 42.4619 -79.1564 290° West 377 434 36,000  Level Cleveland Center
05:23PM 42.4925 -79.2936 287° West 377 434 36,000  Level Cleveland Center
05:24PM 42.5003 -79.4314 274° West 377 434 36,000  Level Cleveland Center
05:25PM 42.5058 -79.5692 273° West 366 421 36,000  Level Cleveland Center
05:26PM 42.5131 -79.7044 274° West 366 421 36,000  Level Cleveland Center
05:27PM 42.5203 -79.8450 274° West 366 421 36,000  Level Cleveland Center
05:28PM 42.5256 -80.0000 273° West 366 421 36,000  Level Cleveland Center
05:29PM 42.5303 -80.1381 273° West 366 421 36,000  Level Cleveland Center
05:30PM 42.5389 -80.2761 275° West 366 421 36,000  Level Cleveland Center
05:31PM 42.5414 -80.4142 271° West 366 421 36,000  Level Cleveland Center
05:32PM 42.5478 -80.5550 274° West 366 421 36,000  Level Cleveland Center
05:33PM 42.5539 -80.6931 273° West 365 420 36,000  Level Cleveland Center
05:34PM 42.5578 -80.8311 272° West 365 420 36,000  Level Cleveland Center
05:35PM 42.5639 -80.9581 274° West 377 434 36,000  Level Cleveland Center
05:36PM 42.5694 -81.0992 273° West 382 440 36,000  Level Cleveland Center
05:37PM 42.5731 -81.2400 272° West 382 440 36,000  Level Cleveland Center
05:38PM 42.5783 -81.3811 273° West 377 434 36,000  Level Cleveland Center
05:39PM 42.5961 -81.5194 280° West 377 434 36,000  Level Cleveland Center
05:40PM 42.6197 -81.6581 283° West 383 441 36,000  Level Cleveland Center
05:41PM 42.6456 -81.8053 283° West 376 433 36,000  Level Cleveland Center
05:42PM 42.6689 -81.9386 283° West 382 440 36,000  Level Cleveland Center
05:43PM 42.6922 -82.0747 283° West 382 440 36,000  Level Cleveland Center
05:44PM 42.7175 -82.2167 284° West 382 440 36,000  Level Cleveland Center
05:45PM 42.7403 -82.3586 282° West 382 440 36,000  Level Cleveland Center
05:46PM 42.7631 -82.5006 282° West 382 440 36,000  Level Cleveland Center
05:47PM 42.7878 -82.6428 283° West 387 445 36,000  Level Cleveland Center
05:48PM 42.8103 -82.7822 282° West 387 445 36,000  Level Cleveland Center
05:49PM 42.8344 -82.9303 283° West 393 452 36,000  Level Cleveland Center
05:50PM 42.8583 -83.0728 283° West 393 452 36,000  Level Cleveland Center
05:51PM 42.8803 -83.2156 282° West 393 452 36,000  Level Cleveland Center
05:52PM 42.9039 -83.3611 283° West 393 452 36,000  Level Cleveland Center
05:53PM 42.9275 -83.5039 283° West 393 452 36,000  Level Cleveland Center
05:54PM 42.9489 -83.6467 282° West 388 447 36,000  Level Cleveland Center
05:55PM 42.9617 -83.7892 277° West 388 447 36,000  Level Cleveland Center
05:56PM 42.9472 -83.9303 262° West 382 440 36,000  Level Cleveland Center
05:57PM 42.9328 -84.0658 262° West 377 434 36,000  Level Cleveland Center
05:58PM 42.9225 -84.2011 264° West 372 428 36,000 -480 Level Cleveland Center
05:59PM 42.9075 -84.3450 262° West 362 417 35,100 -1,500 Descending Cleveland Center
06:00PM 42.8939 -84.4775 262° West 368 423 33,100 -1,560 Descending Chicago Center
06:01PM 42.8806 -84.6194 263° West 379 436 32,000 -540 Descending Chicago Center
06:03PM 42.8656 -84.7658 262° West 389 448 32,000  Level Chicago Center
06:04PM 42.8503 -84.9100 262° West 386 444 32,000  Level Chicago Center
06:05PM 42.8350 -85.0553 262° West 388 447 32,000  Level Chicago Center
06:06PM 42.8158 -85.2292 262° West 388 447 32,000  Level Chicago Center
06:07PM 42.8006 -85.3742 262° West 386 444 32,000 -540 Level Chicago Center
06:08PM 42.7825 -85.5197 260° West 389 448 30,900 -1,560 Descending Chicago Center
06:09PM 42.7558 -85.6656 256° West 394 453 28,800 -2,100 Descending Chicago Center
06:10PM 42.7289 -85.8153 256° West 404 465 26,600 -2,100 Descending Chicago Center
06:11PM 42.7031 -85.9611 256° West 397 457 24,500 -2,040 Descending Chicago Center
06:12PM 42.6775 -86.1014 256° West 388 447 22,500 -2,100 Descending Chicago Center
06:13PM 42.6489 -86.2561 256° West 360 414 20,200 -1,920 Descending Chicago Center
06:14PM 42.6233 -86.3825 255° West 348 400 18,600 -1,620 Descending Chicago Center
06:15PM 42.5997 -86.5169 257° West 363 418 16,900 -1,500 Descending Chicago Center
06:16PM 42.5750 -86.6461 255° West 356 410 15,500 -1,380 Descending Chicago Center
06:17PM 42.5500 -86.7711 255° West 347 399 14,100 -1,440 Descending Chicago Center
06:18PM 42.5161 -86.8878 249° West 334 384 12,600 -1,560 Descending Chicago Center
06:19PM 42.4786 -87.0281 250° West 333 383 10,900 -1,260 Descending Chicago Center
06:20PM 42.4478 -87.1411 250° West 323 372 10,000 -780 Descending Chicago Center
06:21PM 42.4211 -87.2350 249° West 274 315 9,400 -1,140 Descending Chicago Center
06:22PM 42.3969 -87.3269 250° West 262 302 7,700 -1,620 Descending Chicago Center
06:23PM 42.3708 -87.4186 249° West 257 296 6,100 -840 Descending Chicago Center
06:24PM 42.3419 -87.5222 249° West 254 292 6,000 -60 Descending Chicago Center
06:25PM 42.2883 -87.5431 196° South 246 283 6,000  Level Chicago Center
06:26PM 42.2206 -87.5328 174° South 245 282 6,000  Level Chicago Center
06:27PM 42.1394 -87.5194 173° South 246 283 6,000 -360 Level Chicago Center
06:28PM 42.0833 -87.5000 166° South 203 234 5,400 -600 Descending Chicago TRACON
06:29PM 42.0833 -87.4167 90° East 246 283 4,900 -720 Descending Chicago TRACON
06:30PM 42.0667 -87.3500 109° East 234 269 4,000 -420 Descending Chicago TRACON
06:31PM 42.0167 -87.3500 180° South 210 242 4,100  Climbing Chicago TRACON
06:32PM 42.0000 -87.4167 251° West 210 242 4,000 -60 Descending Chicago TRACON
06:33PM 42.0000 -87.4833 270° West 182 209 4,000  Level Chicago TRACON
06:34PM 42.0000 -87.5500 270° West 173 199 4,000  Level Chicago TRACON
06:35PM 42.0000 -87.6167 270° West 172 198 4,000  Level Chicago TRACON
06:36PM 42.0000 -87.6833 270° West 173 199 4,000 -540 Level Chicago TRACON
06:37PM 42.0000 -87.7333 270° West 173 199 3,000 -960 Descending Chicago TRACON
06:38PM 42.0000 -87.8000 270° West 173 199 2,100 -900 Descending Chicago TRACON
06:39PM 42.0000 -87.8500 270° West 134 154 1,300 -840 Descending Chicago TRACON